Time;durP1;ratioP1;P1;durP2;ratioP2;P2;SDS_P1;SDS_P2;PMS_P1;PMS_P2;Temp;Humidity;BMP_temperature;BMP_pressure;BME280_temperature;BME280_humidity;BME280_pressure;Samples;Min_cycle;Max_cycle;Signal;HPM_P1;HPM_P2
2023/03/26 00:02:10;;;;;;;18.85;3.35;;;8.10;99.90;;;;;;5016210;28;20047;-70
2023/03/26 00:04:35;;;;;;;12.20;3.78;;;8.10;99.90;;;;;;5015683;28;20046;-70
2023/03/26 00:07:01;;;;;;;15.85;4.10;;;8.10;99.90;;;;;;5016325;28;20069;-70
2023/03/26 00:09:28;;;;;;;19.05;4.85;;;8.10;99.90;;;;;;5034219;28;20116;-70
2023/03/26 00:11:55;;;;;;;18.02;3.70;;;8.10;99.90;;;;;;5034006;28;20047;-70
2023/03/26 00:14:21;;;;;;;14.80;3.75;;;8.10;99.90;;;;;;5033349;28;20037;-70
2023/03/26 00:16:48;;;;;;;20.42;4.72;;;8.10;99.90;;;;;;5033952;28;20121;-70
2023/03/26 00:19:14;;;;;;;18.08;3.28;;;8.10;99.90;;;;;;5016054;28;20042;-70
2023/03/26 00:21:40;;;;;;;21.17;4.68;;;8.10;99.90;;;;;;5033822;28;20044;-70
2023/03/26 00:24:13;;;;;;;14.75;4.35;;;8.10;99.90;;;;;;5015953;28;20500;-70
2023/03/26 00:26:39;;;;;;;;;;;8.10;99.90;;;;;;5016545;28;20037;-70
2023/03/26 00:29:07;;;;;;;23.73;8.52;;;8.10;99.90;;;;;;5033816;28;19940;-70
2023/03/26 00:31:33;;;;;;;17.08;4.35;;;8.10;99.90;;;;;;5016007;28;20121;-70
2023/03/26 00:34:01;;;;;;;18.10;3.67;;;8.00;99.90;;;;;;5033505;28;20620;-70
2023/03/26 00:36:27;;;;;;;23.88;5.15;;;8.00;99.90;;;;;;5033601;28;20464;-70
2023/03/26 00:38:53;;;;;;;20.27;3.90;;;8.00;99.90;;;;;;5015818;28;20120;-70
2023/03/26 00:41:29;;;;;;;16.70;3.45;;;8.00;99.90;;;;;;5033468;28;20038;-70
2023/03/26 00:43:56;;;;;;;14.25;3.67;;;7.90;99.90;;;;;;5015593;28;20052;-70
2023/03/26 00:46:24;;;;;;;15.18;3.22;;;7.90;99.90;;;;;;5033000;28;20048;-70
2023/03/26 00:48:50;;;;;;;15.20;3.13;;;7.90;99.90;;;;;;5015645;28;20033;-70
2023/03/26 00:51:16;;;;;;;20.90;3.67;;;7.90;99.90;;;;;;5033398;28;20068;-70
2023/03/26 00:53:44;;;;;;;16.40;4.03;;;7.90;99.90;;;;;;5032882;28;20497;-70
2023/03/26 00:56:11;;;;;;;17.83;4.18;;;7.90;99.90;;;;;;5015256;28;20120;-70
2023/03/26 00:58:37;;;;;;;15.00;3.83;;;7.90;99.90;;;;;;4999048;28;20068;-70
2023/03/26 01:01:07;;;;;;;15.52;3.78;;;7.90;99.90;;;;;;5032720;28;20041;-70
2023/03/26 01:03:35;;;;;;;18.25;4.93;;;7.90;99.90;;;;;;5032708;28;20052;-70
2023/03/26 01:06:08;;;;;;;14.80;3.05;;;7.80;99.90;;;;;;5032747;28;20509;-71
2023/03/26 01:08:37;;;;;;;27.13;4.50;;;7.80;99.90;;;;;;5033144;28;20041;-70
2023/03/26 01:11:19;;;;;;;23.00;4.07;;;7.90;99.90;;;;;;5015306;28;20041;-69
2023/03/26 01:13:55;;;;;;;18.17;3.90;;;7.80;99.90;;;;;;5015149;28;20045;-69
2023/03/26 01:16:30;;;;;;;20.27;2.90;;;7.70;99.90;;;;;;5032670;28;20128;-70
2023/03/26 01:18:57;;;;;;;20.38;4.50;;;7.80;99.90;;;;;;5015417;28;20453;-70
2023/03/26 01:21:29;;;;;;;13.38;3.42;;;7.80;99.90;;;;;;5032803;28;20056;-70
2023/03/26 01:24:05;;;;;;;19.77;3.70;;;7.70;99.90;;;;;;5014845;28;20037;-70
2023/03/26 01:26:46;;;;;;;17.55;3.90;;;7.70;99.90;;;;;;5032559;28;20083;-69
2023/03/26 01:29:27;;;;;;;19.13;4.93;;;7.70;99.90;;;;;;5029350;28;20401;-69
2023/03/26 01:32:20;;;;;;;17.42;3.45;;;7.70;99.90;;;;;;5010246;28;20504;-70
2023/03/26 01:35:12;;;;;;;17.63;3.13;;;7.70;99.90;;;;;;5029857;28;20048;-69
2023/03/26 01:37:51;;;;;;;26.60;4.32;;;7.60;99.90;;;;;;5032194;28;20046;-70
2023/03/26 01:40:37;;;;;;;17.55;3.42;;;7.60;99.90;;;;;;5014583;28;20057;-69
2023/03/26 01:43:08;;;;;;;19.25;3.92;;;7.60;99.90;;;;;;5014605;28;20073;-70
2023/03/26 01:45:37;;;;;;;17.52;4.07;;;7.60;99.90;;;;;;5031950;28;20037;-69
2023/03/26 01:48:05;;;;;;;14.30;3.55;;;7.60;99.90;;;;;;5032267;28;20045;-70
2023/03/26 01:50:31;;;;;;;24.05;3.33;;;7.50;99.90;;;;;;5032212;28;20464;-69
2023/03/26 01:52:57;;;;;;;19.27;3.38;;;7.50;99.90;;;;;;5032064;28;20121;-69
2023/03/26 01:55:35;;;;;;;21.83;3.92;;;7.50;99.90;;;;;;5013586;28;20485;-69
2023/03/26 01:58:16;;;;;;;17.67;3.15;;;7.50;99.90;;;;;;5032149;28;20084;-69
2023/03/26 02:00:52;;;;;;;23.65;3.33;;;7.50;99.90;;;;;;5031983;28;20041;-69
2023/03/26 02:03:29;;;;;;;15.90;4.47;;;7.50;99.90;;;;;;5031869;28;20045;-69
2023/03/26 02:06:15;;;;;;;21.17;3.72;;;7.40;99.90;;;;;;5031631;28;20084;-69
2023/03/26 02:08:49;;;;;;;20.30;4.28;;;7.40;99.90;;;;;;5014542;28;20128;-69
2023/03/26 02:11:15;;;;;;;23.88;4.63;;;7.40;99.90;;;;;;4997531;28;20448;-70
2023/03/26 02:13:42;;;;;;;21.15;4.07;;;7.40;99.90;;;;;;5031702;28;20049;-69
2023/03/26 02:16:12;;;;;;;22.55;4.82;;;7.40;99.90;;;;;;5031278;28;20034;-69
2023/03/26 02:18:40;;;;;;;20.15;5.80;;;7.30;99.90;;;;;;5031833;28;20129;-69
2023/03/26 02:21:18;;;;;;;21.73;4.55;;;7.30;99.90;;;;;;5014088;28;20080;-69
2023/03/26 02:23:45;;;;;;;19.38;5.45;;;7.30;99.90;;;;;;5031710;28;20048;-69
2023/03/26 02:26:14;;;;;;;20.88;3.75;;;7.20;99.90;;;;;;5031326;28;20488;-69
2023/03/26 02:28:40;;;;;;;16.60;3.50;;;7.20;99.90;;;;;;5031970;28;20037;-69
2023/03/26 02:31:09;;;;;;;19.70;4.60;;;7.20;99.90;;;;;;5031838;28;20045;-69
2023/03/26 02:33:36;;;;;;;13.80;3.65;;;7.20;99.90;;;;;;5013705;28;20060;-69
2023/03/26 02:36:02;;;;;;;16.38;4.20;;;7.10;99.90;;;;;;5031424;28;20048;-69
2023/03/26 02:38:32;;;;;;;15.90;3.58;;;7.10;99.90;;;;;;5013949;28;20041;-69
2023/03/26 02:40:58;;;;;;;19.13;5.63;;;7.10;99.90;;;;;;5031472;28;20037;-69
2023/03/26 02:43:24;;;;;;;14.68;3.70;;;7.10;99.90;;;;;;5014015;28;20046;-69
2023/03/26 02:45:50;;;;;;;23.38;3.90;;;7.00;99.90;;;;;;5013502;28;20515;-69
2023/03/26 02:48:15;;;;;;;16.23;4.00;;;7.10;99.90;;;;;;5013832;28;20041;-70
2023/03/26 02:50:42;;;;;;;18.27;4.75;;;7.10;99.90;;;;;;5031435;28;20048;-70
2023/03/26 02:53:08;;;;;;;21.30;4.35;;;7.00;99.90;;;;;;5031045;28;20124;-70
2023/03/26 02:55:34;;;;;;;20.02;3.22;;;7.10;99.90;;;;;;5030491;28;20074;-69
2023/03/26 02:57:59;;;;;;;19.27;4.18;;;7.10;99.90;;;;;;5031662;28;20080;-69
2023/03/26 03:00:25;;;;;;;21.02;3.50;;;7.10;99.90;;;;;;5031465;28;20052;-69
2023/03/26 03:02:52;;;;;;;13.95;2.95;;;7.10;99.90;;;;;;5013734;28;20687;-69
2023/03/26 03:05:19;;;;;;;16.90;4.07;;;7.10;99.90;;;;;;5030809;28;20505;-69
2023/03/26 03:07:45;;;;;;;16.25;3.63;;;7.20;99.90;;;;;;5031375;28;20038;-69
2023/03/26 03:10:13;;;;;;;12.05;3.22;;;7.20;99.90;;;;;;5031222;28;20053;-69
2023/03/26 03:12:42;;;;;;;28.77;5.72;;;7.20;99.90;;;;;;5031140;28;20042;-70
2023/03/26 03:15:08;;;;;;;15.98;3.58;;;7.20;99.90;;;;;;5013104;28;20045;-70
2023/03/26 03:17:34;;;;;;;18.52;4.10;;;7.20;99.90;;;;;;5031392;28;20045;-70
2023/03/26 03:19:59;;;;;;;24.17;3.67;;;7.20;99.90;;;;;;5031100;28;20046;-70
2023/03/26 03:22:25;;;;;;;18.90;4.18;;;7.20;99.90;;;;;;5032383;28;20126;-70
2023/03/26 03:24:50;;;;;;;14.88;4.13;;;7.20;99.90;;;;;;5016788;28;20516;-69
2023/03/26 03:27:19;;;;;;;11.40;3.40;;;7.20;99.90;;;;;;5034886;28;20116;-69
2023/03/26 03:29:45;;;;;;;14.82;3.20;;;7.20;99.90;;;;;;5035090;28;20136;-69
2023/03/26 03:32:11;;;;;;;19.05;3.40;;;7.20;99.90;;;;;;5034757;28;20081;-70
2023/03/26 03:34:37;;;;;;;20.33;3.88;;;7.20;99.90;;;;;;5034111;28;20065;-69
2023/03/26 03:37:03;;;;;;;12.95;3.10;;;7.20;99.90;;;;;;5016882;28;20045;-70
2023/03/26 03:39:29;;;;;;;16.88;4.18;;;7.20;99.90;;;;;;5034571;28;20133;-70
2023/03/26 03:41:54;;;;;;;15.30;3.53;;;7.20;99.90;;;;;;5034847;28;20072;-70
2023/03/26 03:44:20;;;;;;;17.65;3.58;;;7.20;99.90;;;;;;5034084;28;20041;-70
2023/03/26 03:46:47;;;;;;;13.85;3.65;;;7.20;99.90;;;;;;5034487;28;20038;-69
2023/03/26 03:49:13;;;;;;;17.95;4.18;;;7.20;99.90;;;;;;5016796;28;20050;-69
2023/03/26 03:51:39;;;;;;;14.95;4.28;;;7.20;99.90;;;;;;5034422;28;20037;-69
2023/03/26 03:54:05;;;;;;;19.05;3.95;;;7.20;99.90;;;;;;5016408;28;20386;-69
2023/03/26 03:56:31;;;;;;;19.85;4.05;;;7.20;99.90;;;;;;5034177;28;20032;-70
2023/03/26 03:58:57;;;;;;;15.90;3.63;;;7.20;99.90;;;;;;5034512;28;20033;-69
2023/03/26 04:01:23;;;;;;;18.20;5.05;;;7.20;99.90;;;;;;5033900;28;20056;-69
2023/03/26 04:03:48;;;;;;;18.67;4.13;;;7.10;99.90;;;;;;5016472;28;20432;-69
2023/03/26 04:06:17;;;;;;;21.38;3.88;;;7.10;99.90;;;;;;5033733;28;20033;-70
2023/03/26 04:08:44;;;;;;;19.40;4.82;;;7.10;99.90;;;;;;5034107;28;20048;-72
2023/03/26 04:11:10;;;;;;;20.20;4.10;;;7.10;99.90;;;;;;5000060;28;20048;-72
2023/03/26 04:13:36;;;;;;;17.05;3.08;;;7.10;99.90;;;;;;5034128;28;20423;-69
2023/03/26 04:16:02;;;;;;;22.52;3.72;;;7.10;99.90;;;;;;5058924;22;20045;-71
2023/03/26 04:18:29;;;;;;;16.05;3.50;;;7.00;99.90;;;;;;5053717;28;20087;-71
2023/03/26 04:20:54;;;;;;;15.82;3.67;;;7.00;99.90;;;;;;5054286;28;20371;-71
2023/03/26 04:23:21;;;;;;;12.20;3.03;;;6.90;99.90;;;;;;5053728;28;20072;-71
2023/03/26 04:25:52;;;;;;;26.80;3.70;;;6.90;99.90;;;;;;5024518;28;20037;-71
2023/03/26 04:28:34;;;;;;;17.80;3.10;;;6.90;99.90;;;;;;5032563;28;20034;-71
2023/03/26 04:31:02;;;;;;;19.45;3.92;;;6.80;99.90;;;;;;5033731;28;20044;-71
2023/03/26 04:33:30;;;;;;;20.88;3.70;;;6.80;99.90;;;;;;5033118;28;20043;-71
2023/03/26 04:36:00;;;;;;;14.60;3.63;;;6.70;99.90;;;;;;5033414;28;20037;-71
2023/03/26 04:38:27;;;;;;;18.20;4.13;;;6.70;99.90;;;;;;5033812;28;20048;-71
2023/03/26 04:40:52;;;;;;;25.85;4.50;;;6.70;99.90;;;;;;5033623;28;20615;-71
2023/03/26 04:43:18;;;;;;;10.95;2.92;;;6.70;99.90;;;;;;5033002;28;20034;-71
2023/03/26 04:45:46;;;;;;;16.08;3.58;;;6.70;99.90;;;;;;5014280;28;20044;-71
2023/03/26 04:48:13;;;;;;;17.67;3.50;;;6.70;99.90;;;;;;5033079;28;20521;-71
2023/03/26 04:50:41;;;;;;;19.35;4.28;;;6.60;99.90;;;;;;5033158;28;20460;-71
2023/03/26 04:53:13;;;;;;;17.70;3.40;;;6.60;99.90;;;;;;5015402;28;20057;-71
2023/03/26 04:55:50;;;;;;;20.15;3.30;;;6.60;99.90;;;;;;5014987;28;20081;-71
2023/03/26 04:58:16;;;;;;;16.92;3.97;;;6.60;99.90;;;;;;5033305;28;20056;-71
2023/03/26 05:00:42;;;;;;;17.33;3.50;;;6.60;99.90;;;;;;5032801;28;20041;-71
2023/03/26 05:03:11;;;;;;;17.17;3.72;;;6.60;99.90;;;;;;5033094;28;20037;-71
2023/03/26 05:05:37;;;;;;;28.20;3.80;;;6.60;99.90;;;;;;5032601;28;20072;-72
2023/03/26 05:08:03;;;;;;;17.05;4.07;;;6.60;99.90;;;;;;5033153;28;20037;-71
2023/03/26 05:10:29;;;;;;;24.42;4.55;;;6.60;99.90;;;;;;5033065;28;20051;-71
2023/03/26 05:12:54;;;;;;;14.93;3.00;;;6.60;99.90;;;;;;5015342;28;20033;-71
2023/03/26 05:15:20;;;;;;;16.13;3.30;;;6.70;99.90;;;;;;5032051;28;20041;-71
2023/03/26 05:17:47;;;;;;;18.60;4.50;;;6.70;99.90;;;;;;5032787;28;20635;-71
2023/03/26 05:20:22;;;;;;;12.75;3.97;;;6.70;99.90;;;;;;5032819;28;20404;-71
2023/03/26 05:22:49;;;;;;;22.23;3.67;;;6.70;99.90;;;;;;5032842;28;20382;-71
2023/03/26 05:25:16;;;;;;;16.92;4.05;;;6.70;99.90;;;;;;5032267;28;20029;-71
2023/03/26 05:27:42;;;;;;;24.80;3.70;;;6.70;99.90;;;;;;5032598;28;20037;-71
2023/03/26 05:30:08;;;;;;;19.60;4.80;;;6.80;99.90;;;;;;5032731;28;20136;-71
2023/03/26 05:32:34;;;;;;;19.27;3.65;;;6.70;99.90;;;;;;5015105;28;20065;-71
2023/03/26 05:35:00;;;;;;;24.08;4.45;;;6.80;99.90;;;;;;5032274;28;20498;-71
2023/03/26 05:37:29;;;;;;;20.15;3.85;;;6.80;99.90;;;;;;5032479;28;20231;-71
2023/03/26 05:39:56;;;;;;;17.35;4.05;;;6.70;99.90;;;;;;5032302;28;20489;-72
2023/03/26 05:42:22;;;;;;;14.93;3.65;;;6.70;99.90;;;;;;5032343;28;20037;-71
2023/03/26 05:44:48;;;;;;;16.95;4.60;;;6.70;99.90;;;;;;5031934;28;20030;-71
2023/03/26 05:47:14;;;;;;;16.55;3.15;;;6.70;99.90;;;;;;5031491;28;20113;-71
2023/03/26 05:49:40;;;;;;;17.98;3.13;;;6.70;99.90;;;;;;5032296;28;20045;-71
2023/03/26 05:52:05;;;;;;;11.30;3.03;;;6.70;99.90;;;;;;5032317;28;20041;-71
2023/03/26 05:54:31;;;;;;;16.10;3.70;;;6.70;99.90;;;;;;5031575;28;20586;-71
2023/03/26 05:56:56;;;;;;;12.85;2.65;;;6.70;99.90;;;;;;5031954;28;20045;-72
2023/03/26 05:59:22;;;;;;;17.13;3.05;;;6.70;99.90;;;;;;5032215;28;20045;-71
2023/03/26 06:01:49;;;;;;;18.45;4.40;;;6.70;99.90;;;;;;5032176;28;20543;-71
2023/03/26 06:04:16;;;;;;;16.98;3.55;;;6.80;99.90;;;;;;5031886;28;20042;-71
2023/03/26 06:06:43;;;;;;;20.30;3.78;;;6.80;99.90;;;;;;5031971;28;20068;-71
2023/03/26 06:09:12;;;;;;;20.70;3.10;;;6.70;99.90;;;;;;5014359;28;20037;-71
2023/03/26 06:11:38;;;;;;;21.70;4.13;;;6.70;99.90;;;;;;5031878;28;20033;-71
2023/03/26 06:14:04;;;;;;;13.30;2.80;;;6.70;99.90;;;;;;5031916;28;20409;-71
2023/03/26 06:16:30;;;;;;;14.75;2.65;;;6.80;99.90;;;;;;5031494;28;20029;-71
2023/03/26 06:18:56;;;;;;;21.67;3.08;;;6.70;99.90;;;;;;5031979;28;20092;-71
2023/03/26 06:21:21;;;;;;;10.50;2.45;;;6.70;99.90;;;;;;5014009;28;20485;-71
2023/03/26 06:23:47;;;;;;;14.20;3.33;;;6.80;99.90;;;;;;5031619;28;20037;-71
2023/03/26 06:26:14;;;;;;;19.63;3.78;;;6.80;99.90;;;;;;5013832;28;20404;-71
2023/03/26 06:28:40;;;;;;;19.38;3.53;;;6.80;99.90;;;;;;5031648;28;20563;-71
2023/03/26 06:31:05;;;;;;;18.50;3.95;;;6.80;99.90;;;;;;5031792;28;20072;-71
2023/03/26 06:33:31;;;;;;;18.77;3.45;;;6.80;99.90;;;;;;5031577;28;20037;-71
2023/03/26 06:35:57;;;;;;;17.63;3.45;;;6.80;99.90;;;;;;5031331;28;20115;-71
2023/03/26 06:38:23;;;;;;;9.43;2.28;;;6.80;99.90;;;;;;5013896;28;20524;-71
2023/03/26 06:40:49;;;;;;;15.57;3.50;;;6.80;99.90;;;;;;5013816;28;20057;-71
2023/03/26 06:43:14;;;;;;;13.25;2.70;;;6.80;99.90;;;;;;5031709;28;20116;-71
2023/03/26 06:45:40;;;;;;;15.52;3.42;;;6.80;99.90;;;;;;5031244;28;20408;-71
2023/03/26 06:48:05;;;;;;;15.60;3.22;;;6.80;99.90;;;;;;5031680;28;20061;-71
2023/03/26 06:50:31;;;;;;;19.52;3.28;;;6.80;99.90;;;;;;5014080;28;20049;-71
2023/03/26 06:52:57;;;;;;;17.80;3.40;;;6.90;99.90;;;;;;5013614;28;20057;-71
2023/03/26 06:55:23;;;;;;;18.02;2.58;;;6.90;99.90;;;;;;5012906;28;20041;-71
2023/03/26 06:57:50;;;;;;;16.25;2.83;;;6.80;99.90;;;;;;5015812;28;20401;-71
2023/03/26 07:00:16;;;;;;;15.95;3.03;;;6.80;99.90;;;;;;5035468;28;20041;-70
2023/03/26 07:02:42;;;;;;;19.77;3.50;;;6.80;99.90;;;;;;5035458;28;20121;-70
2023/03/26 07:05:08;;;;;;;21.25;3.70;;;6.80;99.90;;;;;;5034933;28;20116;-70
2023/03/26 07:07:33;;;;;;;20.70;3.92;;;6.80;99.90;;;;;;5035291;28;20044;-70
2023/03/26 07:09:59;;;;;;;21.52;4.10;;;6.80;99.90;;;;;;5035466;28;20528;-70
2023/03/26 07:12:25;;;;;;;18.13;3.90;;;6.80;99.90;;;;;;5034854;28;20041;-70
2023/03/26 07:14:50;;;;;;;15.27;3.58;;;6.90;99.90;;;;;;5035101;28;20045;-70
2023/03/26 07:17:16;;;;;;;13.95;2.90;;;6.90;99.90;;;;;;5035513;28;20033;-69
2023/03/26 07:19:41;;;;;;;13.20;3.15;;;6.80;99.90;;;;;;5035274;28;20059;-69
2023/03/26 07:22:14;;;;;;;20.80;2.78;;;6.80;99.90;;;;;;5035136;28;20060;-69
2023/03/26 07:24:40;;;;;;;8.52;2.42;;;6.90;99.90;;;;;;5034913;28;20041;-70
2023/03/26 07:27:44;;;;;;;16.48;3.00;;;6.90;99.90;;;;;;5025354;28;20065;-71
2023/03/26 07:30:32;;;;;;;16.73;2.50;;;7.00;99.90;;;;;;5015193;28;20041;-71
2023/03/26 07:33:14;;;;;;;13.50;2.53;;;6.90;99.90;;;;;;5014981;28;20104;-72
2023/03/26 07:35:52;;;;;;;14.35;3.15;;;6.90;99.90;;;;;;5014877;28;20093;-72
2023/03/26 07:38:32;;;;;;;20.75;3.75;;;7.00;99.90;;;;;;5015072;28;20053;-72
2023/03/26 07:41:10;;;;;;;17.05;3.47;;;7.00;99.90;;;;;;5017761;28;20087;-71
2023/03/26 07:43:52;;;;;;;17.10;2.72;;;7.00;99.90;;;;;;5034319;28;20120;-71
2023/03/26 07:46:22;;;;;;;23.75;3.33;;;7.20;99.90;;;;;;5031717;28;20041;-71
2023/03/26 07:48:50;;;;;;;12.70;3.17;;;7.20;99.90;;;;;;5034105;28;20085;-71
2023/03/26 07:51:17;;;;;;;10.75;2.40;;;7.20;99.90;;;;;;5003062;28;20092;-71
2023/03/26 07:53:43;;;;;;;12.18;2.47;;;7.20;99.90;;;;;;5012701;28;20086;-69
2023/03/26 07:56:30;;;;;;;12.32;3.40;;;7.20;99.90;;;;;;5033646;28;20041;-71
2023/03/26 07:59:05;;;;;;;9.30;2.58;;;7.20;99.90;;;;;;5033745;28;20103;-70
2023/03/26 08:02:12;;;;;;;9.50;2.78;;;7.30;99.90;;;;;;5022794;28;20116;-71
2023/03/26 08:04:46;;;;;;;12.40;3.08;;;7.40;99.90;;;;;;5031684;28;20374;-72
2023/03/26 08:07:36;;;;;;;11.98;2.92;;;7.40;99.90;;;;;;5034169;28;20048;-72
2023/03/26 08:10:25;;;;;;;13.70;2.80;;;7.60;99.90;;;;;;5019531;28;20049;-72
2023/03/26 08:13:02;;;;;;;14.27;3.03;;;7.60;99.90;;;;;;5033921;28;20040;-72
2023/03/26 08:15:36;;;;;;;14.80;2.53;;;7.60;99.90;;;;;;5033441;28;20041;-72
2023/03/26 08:18:26;;;;;;;13.02;2.75;;;7.60;99.90;;;;;;5033754;28;20041;-72
2023/03/26 08:20:58;;;;;;;13.07;2.85;;;7.80;99.90;;;;;;5021477;28;20505;-71
2023/03/26 08:23:37;;;;;;;14.63;3.03;;;7.90;99.90;;;;;;5033514;28;20551;-72
2023/03/26 08:26:46;;;;;;;14.63;2.85;;;7.90;99.90;;;;;;5007687;28;20051;-71
2023/03/26 08:29:23;;;;;;;21.55;3.25;;;8.00;99.90;;;;;;5009354;28;20046;-70
2023/03/26 08:31:49;;;;;;;16.52;3.53;;;7.90;99.90;;;;;;5015638;28;20076;-70
2023/03/26 08:34:15;;;;;;;8.88;2.20;;;7.90;99.90;;;;;;5015489;28;20489;-70
2023/03/26 08:36:41;;;;;;;13.77;2.72;;;7.90;99.90;;;;;;5033342;28;20044;-70
2023/03/26 08:39:07;;;;;;;15.13;2.20;;;7.90;99.90;;;;;;5015605;28;20128;-70
2023/03/26 08:42:03;;;;;;;12.75;2.97;;;8.00;99.90;;;;;;5033222;28;20415;-71
2023/03/26 08:45:02;;;;;;;15.57;3.45;;;8.10;99.90;;;;;;5022656;28;20412;-70
2023/03/26 08:48:08;;;;;;;15.13;3.35;;;8.00;99.90;;;;;;5019381;28;20524;-70
2023/03/26 08:51:11;;;;;;;13.77;2.38;;;8.00;99.90;;;;;;4952548;29;20078;-69
2023/03/26 08:54:15;;;;;;;18.40;3.50;;;8.30;99.90;;;;;;5026833;28;20441;-71
2023/03/26 08:57:02;;;;;;;15.27;2.73;;;8.40;99.90;;;;;;5019505;28;20045;-69
2023/03/26 08:59:49;;;;;;;16.20;2.90;;;8.60;99.90;;;;;;5032706;28;20351;-69
2023/03/26 09:02:37;;;;;;;10.95;2.10;;;9.00;99.90;;;;;;5026168;28;20042;-70
2023/03/26 09:05:25;;;;;;;14.93;2.58;;;8.70;99.90;;;;;;5005388;28;20048;-70
2023/03/26 09:08:24;;;;;;;15.75;3.35;;;8.70;99.90;;;;;;5012834;28;20497;-70
2023/03/26 09:11:05;;;;;;;19.55;4.63;;;8.80;99.90;;;;;;5030521;28;20041;-69
2023/03/26 09:14:00;;;;;;;17.63;3.15;;;8.60;99.90;;;;;;5032691;28;20405;-70
2023/03/26 09:16:47;;;;;;;11.88;2.60;;;8.50;99.90;;;;;;5014517;28;20429;-69
2023/03/26 09:19:35;;;;;;;10.98;2.20;;;8.60;99.90;;;;;;5032580;28;20500;-70
2023/03/26 09:22:19;;;;;;;10.20;2.65;;;9.10;99.90;;;;;;5015279;28;20052;-70
2023/03/26 09:25:14;;;;;;;15.63;3.25;;;9.10;99.90;;;;;;5014451;28;20033;-71
2023/03/26 09:27:57;;;;;;;16.88;3.05;;;9.30;99.90;;;;;;5017500;28;20065;-69
2023/03/26 09:30:53;;;;;;;12.35;2.33;;;9.30;99.00;;;;;;5032283;28;20037;-69
2023/03/26 09:33:37;;;;;;;18.67;3.05;;;9.10;99.80;;;;;;5032249;28;20037;-70
2023/03/26 09:36:26;;;;;;;21.90;3.15;;;8.80;99.90;;;;;;5014466;28;20041;-69
2023/03/26 09:39:26;;;;;;;14.82;2.90;;;8.60;99.90;;;;;;5020660;28;20041;-70
2023/03/26 09:42:07;;;;;;;17.83;3.28;;;8.40;99.90;;;;;;5032084;28;20073;-70
2023/03/26 09:44:44;;;;;;;13.93;2.72;;;8.40;99.90;;;;;;5031971;28;20408;-70
2023/03/26 09:47:35;;;;;;;10.82;2.60;;;8.50;99.90;;;;;;5018987;28;20412;-70
2023/03/26 09:50:22;;;;;;;11.13;2.65;;;8.50;99.90;;;;;;5031561;28;20479;-70
2023/03/26 09:53:02;;;;;;;11.80;3.63;;;8.50;99.90;;;;;;5019523;28;20037;-70
2023/03/26 09:56:03;;;;;;;11.90;2.47;;;8.60;99.90;;;;;;5031155;28;20091;-69
2023/03/26 09:58:46;;;;;;;12.68;2.90;;;8.50;99.90;;;;;;5031678;28;20052;-69
2023/03/26 10:01:15;;;;;;;12.60;2.58;;;8.30;99.90;;;;;;5031792;28;20063;-70
2023/03/26 10:04:17;;;;;;;11.55;3.55;;;8.20;99.90;;;;;;5031793;28;20497;-69
2023/03/26 10:07:15;;;;;;;9.80;2.88;;;8.10;99.90;;;;;;5002080;28;20087;-69
2023/03/26 10:10:03;;;;;;;10.02;2.22;;;8.10;99.90;;;;;;5014041;28;20037;-70
2023/03/26 10:12:42;;;;;;;17.90;3.78;;;8.00;99.90;;;;;;5031614;28;20041;-69
2023/03/26 10:15:40;;;;;;;14.30;2.85;;;8.00;99.90;;;;;;5053652;22;20037;-69
2023/03/26 10:18:36;;;;;;;13.65;2.33;;;8.10;99.90;;;;;;4998205;28;20096;-71
2023/03/26 10:21:23;;;;;;;12.50;2.60;;;8.00;99.90;;;;;;5000227;28;20065;-70
2023/03/26 10:24:00;;;;;;;15.07;3.20;;;8.10;99.90;;;;;;5011622;28;20517;-70
2023/03/26 10:26:52;;;;;;;14.55;4.72;;;8.10;99.90;;;;;;5007077;28;20038;-70
2023/03/26 10:29:55;;;;;;;12.55;3.00;;;8.20;99.90;;;;;;4974665;28;20038;-70
2023/03/26 10:32:28;;;;;;;;;;;8.20;99.90;;;;;;4992033;28;20429;-71
2023/03/26 10:35:20;;;;;;;19.08;2.63;;;8.00;99.80;;;;;;4991789;28;20017;-71
2023/03/26 10:38:14;;;;;;;9.70;3.05;;;8.00;99.90;;;;;;4983412;28;20056;-71
2023/03/26 10:40:50;;;;;;;14.88;3.65;;;8.20;99.90;;;;;;4992760;28;20057;-70
2023/03/26 10:43:50;;;;;;;23.23;3.55;;;8.20;99.90;;;;;;5007450;28;20160;-70
2023/03/26 10:46:48;;;;;;;12.02;2.25;;;8.10;99.90;;;;;;5005397;28;20037;-70
2023/03/26 10:49:40;;;;;;;17.92;3.13;;;8.20;98.70;;;;;;5010828;28;20084;-71
2023/03/26 10:52:11;;;;;;;9.55;2.40;;;8.20;99.50;;;;;;5003433;28;20080;-71
2023/03/26 10:54:49;;;;;;;21.13;2.70;;;8.20;98.90;;;;;;5010487;28;20038;-72
2023/03/26 10:57:20;;;;;;;22.10;3.60;;;8.10;98.20;;;;;;5011150;28;20042;-72
2023/03/26 10:59:46;;;;;;;13.30;2.63;;;8.10;98.50;;;;;;5010641;28;20505;-72
2023/03/26 11:02:23;;;;;;;13.40;2.80;;;8.10;98.60;;;;;;4993743;28;20086;-71
2023/03/26 11:05:02;;;;;;;14.95;3.75;;;8.20;97.70;;;;;;5011346;28;20125;-70
2023/03/26 11:07:42;;;;;;;15.65;3.30;;;8.20;98.40;;;;;;5011545;28;20494;-71
2023/03/26 11:10:17;;;;;;;14.27;3.35;;;8.30;98.30;;;;;;5011642;28;20520;-72
2023/03/26 11:12:56;;;;;;;11.10;2.10;;;8.30;98.80;;;;;;5011270;28;20129;-72
2023/03/26 11:15:30;;;;;;;11.77;2.63;;;8.30;98.70;;;;;;4993569;28;20409;-72
2023/03/26 11:18:06;;;;;;;14.05;2.33;;;8.30;98.60;;;;;;5011792;28;20034;-71
2023/03/26 11:20:52;;;;;;;8.30;2.15;;;8.40;99.10;;;;;;5011534;28;20099;-71
2023/03/26 11:23:25;;;;;;;18.27;4.10;;;8.30;97.90;;;;;;5011830;28;20109;-71
2023/03/26 11:25:53;;;;;;;;;;;8.30;97.80;;;;;;5011645;28;20526;-69
2023/03/26 11:28:24;;;;;;;12.68;2.15;;;8.20;97.30;;;;;;5011409;28;19917;-72
2023/03/26 11:31:11;;;;;;;11.02;2.22;;;8.30;98.10;;;;;;5011595;28;20448;-72
2023/03/26 11:33:43;;;;;;;12.18;3.30;;;8.30;97.10;;;;;;4993995;28;20498;-71
2023/03/26 11:36:12;;;;;;;15.93;2.90;;;8.30;97.00;;;;;;5011184;28;20042;-71
2023/03/26 11:38:45;;;;;;;9.60;2.30;;;8.40;96.00;;;;;;4993798;28;20053;-72
2023/03/26 11:41:21;;;;;;;17.13;4.22;;;8.40;95.70;;;;;;4977450;28;20046;-72
2023/03/26 11:43:51;;;;;;;9.30;2.17;;;8.30;96.00;;;;;;5011471;28;20030;-72
2023/03/26 11:46:21;;;;;;;14.55;2.72;;;8.40;96.10;;;;;;4997415;28;20092;-72
2023/03/26 11:48:56;;;;;;;15.40;2.80;;;8.30;96.40;;;;;;4997161;28;20516;-73
2023/03/26 11:51:28;;;;;;;13.30;3.10;;;8.40;96.70;;;;;;5014726;28;20112;-71
2023/03/26 11:53:53;;;;;;;10.00;2.58;;;8.70;96.10;;;;;;5014760;28;20041;-71
2023/03/26 11:56:27;;;;;;;10.93;3.00;;;8.60;96.60;;;;;;5014597;28;20159;-71
2023/03/26 11:59:07;;;;;;;16.77;3.40;;;8.70;96.60;;;;;;5014701;28;20064;-71
2023/03/26 12:02:13;;;;;;;10.05;2.50;;;8.60;96.50;;;;;;5014497;28;20515;-71
2023/03/26 12:04:41;;;;;;;10.55;2.13;;;8.60;95.90;;;;;;5014327;28;20119;-71
2023/03/26 12:07:19;;;;;;;11.55;2.47;;;8.50;96.10;;;;;;5014406;28;20042;-71
2023/03/26 12:09:55;;;;;;;10.50;2.72;;;8.50;96.20;;;;;;4996888;28;20052;-71
2023/03/26 12:12:24;;;;;;;11.63;2.28;;;8.40;95.80;;;;;;5014678;28;20124;-71
2023/03/26 12:14:50;;;;;;;10.55;1.88;;;8.40;95.90;;;;;;4996729;28;20030;-71
2023/03/26 12:17:35;;;;;;;12.50;2.75;;;8.40;95.30;;;;;;5014106;28;20064;-71
2023/03/26 12:20:21;;;;;;;12.85;3.10;;;8.40;95.00;;;;;;5014111;28;20053;-71
2023/03/26 12:22:47;;;;;;;11.88;1.80;;;8.30;94.60;;;;;;5014096;28;20065;-71
2023/03/26 12:25:15;;;;;;;14.02;2.00;;;8.40;94.60;;;;;;5013944;28;20046;-71
2023/03/26 12:28:08;;;;;;;12.95;2.58;;;8.30;94.50;;;;;;5014198;28;20053;-71
2023/03/26 12:30:38;;;;;;;13.43;2.80;;;8.40;94.20;;;;;;5014146;28;20077;-71
2023/03/26 12:33:26;;;;;;;15.75;2.63;;;8.40;94.10;;;;;;4996269;28;20049;-71
2023/03/26 12:35:54;;;;;;;13.07;2.10;;;8.50;93.70;;;;;;5012355;28;20519;-71
2023/03/26 12:38:39;;;;;;;16.20;2.92;;;8.60;93.00;;;;;;5011009;28;20108;-69
2023/03/26 12:41:12;;;;;;;7.78;1.80;;;8.70;93.60;;;;;;5008587;28;20057;-69
2023/03/26 12:43:49;;;;;;;15.25;1.98;;;8.80;94.50;;;;;;5013545;28;20034;-71
2023/03/26 12:46:29;;;;;;;10.45;3.35;;;8.80;94.10;;;;;;5013523;28;20034;-71
2023/03/26 12:48:58;;;;;;;8.68;2.47;;;8.80;94.90;;;;;;5013745;28;20048;-71
2023/03/26 12:51:42;;;;;;;12.90;2.97;;;8.80;94.60;;;;;;5013508;28;20045;-71
2023/03/26 12:54:39;;;;;;;9.00;1.83;;;8.70;93.60;;;;;;4995906;28;20045;-69
2023/03/26 12:57:19;;;;;;;10.48;1.92;;;8.60;93.60;;;;;;5013528;28;20045;-70
2023/03/26 13:00:13;;;;;;;9.35;2.33;;;8.70;93.70;;;;;;4995849;28;20045;-71
2023/03/26 13:03:15;;;;;;;7.47;1.52;;;8.70;94.10;;;;;;5013496;28;20077;-69
2023/03/26 13:05:57;;;;;;;11.57;2.67;;;8.60;93.70;;;;;;5013070;28;20417;-68
2023/03/26 13:08:31;;;;;;;8.35;2.03;;;8.60;93.30;;;;;;4996005;28;20494;-68
2023/03/26 13:11:08;;;;;;;9.45;2.33;;;8.60;93.90;;;;;;5013308;28;20497;-69
2023/03/26 13:14:08;;;;;;;9.77;2.00;;;8.40;93.60;;;;;;5012435;28;20489;-68
2023/03/26 13:17:08;;;;;;;12.48;1.73;;;8.30;93.30;;;;;;4993995;28;20168;-69
2023/03/26 13:19:49;;;;;;;8.63;2.50;;;8.40;93.30;;;;;;4995626;28;20494;-71
2023/03/26 13:22:40;;;;;;;6.57;1.75;;;8.30;92.30;;;;;;4995557;28;20401;-71
2023/03/26 13:25:19;;;;;;;9.07;2.15;;;8.30;92.10;;;;;;5012725;28;20405;-71